createdAt,value
2018-10-05T00:01:23.569Z,10.43
2018-10-05T00:03:53.950Z,10.33
2018-10-05T00:06:24.331Z,10.26
2018-10-05T00:08:54.761Z,10.16
2018-10-05T00:11:25.361Z,10.05
2018-10-05T00:13:56.453Z,10.02
2018-10-05T00:16:26.928Z,9.93
2018-10-05T00:18:57.348Z,9.87
2018-10-05T00:21:27.760Z,9.80
2018-10-05T00:23:58.084Z,9.76
2018-10-05T00:26:28.551Z,9.76
2018-10-05T00:28:58.861Z,9.71
2018-10-05T00:31:29.984Z,9.68
2018-10-05T00:34:00.500Z,9.67
2018-10-05T00:36:31.108Z,9.67
2018-10-05T00:39:01.720Z,9.69
2018-10-05T00:41:32.056Z,9.74
2018-10-05T00:44:02.356Z,9.72
2018-10-05T00:46:32.914Z,9.75
2018-10-05T00:49:03.348Z,9.77
2018-10-05T00:51:33.603Z,9.75
2018-10-05T00:54:04.088Z,9.79
2018-10-05T00:56:34.552Z,9.80
2018-10-05T00:59:05.053Z,9.82
2018-10-05T01:01:35.551Z,9.74
2018-10-05T01:04:05.815Z,9.61
2018-10-05T01:06:36.256Z,9.44
2018-10-05T01:09:07.559Z,9.37
2018-10-05T01:11:38.197Z,9.29
2018-10-05T01:14:08.556Z,9.25
2018-10-05T01:16:39.063Z,9.22
2018-10-05T01:19:09.660Z,9.19
2018-10-05T01:21:39.888Z,9.15
2018-10-05T01:24:10.192Z,9.12
2018-10-05T01:26:40.756Z,9.09
2018-10-05T01:29:11.115Z,9.06
2018-10-05T01:31:41.529Z,8.98
2018-10-05T01:34:11.946Z,8.99
2018-10-05T01:36:42.347Z,8.93
2018-10-05T01:39:12.639Z,8.87
2018-10-05T01:41:43.036Z,8.81
2018-10-05T01:44:13.396Z,8.78
2018-10-05T01:46:43.756Z,8.74
2018-10-05T01:49:14.172Z,8.70
2018-10-05T01:51:44.658Z,8.69
2018-10-05T01:54:15.546Z,8.60
2018-10-05T01:56:46.008Z,8.58
2018-10-05T01:59:16.464Z,8.50
2018-10-05T02:01:47.837Z,8.46
2018-10-05T02:04:18.212Z,8.44
2018-10-05T02:06:48.641Z,8.43
2018-10-05T02:09:18.943Z,8.33
2018-10-05T02:11:49.400Z,8.32
2018-10-05T02:14:19.693Z,8.28
2018-10-05T02:16:50.155Z,8.25
2018-10-05T02:19:20.776Z,8.25
2018-10-05T02:21:51.146Z,8.27
2018-10-05T02:24:21.506Z,8.26
2018-10-05T02:26:51.914Z,8.28
2018-10-05T02:29:22.208Z,8.25
2018-10-05T02:31:52.567Z,8.21
2018-10-05T02:34:22.924Z,8.26
2018-10-05T02:36:53.401Z,8.23
2018-10-05T02:39:23.710Z,8.17
2018-10-05T02:41:54.089Z,8.11
2018-10-05T02:44:24.352Z,8.11
2018-10-05T02:46:54.712Z,8.10
2018-10-05T02:49:25.348Z,8.10
2018-10-05T02:51:55.995Z,8.11
2018-10-05T02:54:26.281Z,8.12
2018-10-05T02:56:56.624Z,8.11
2018-10-05T02:59:26.932Z,8.23
2018-10-05T03:02:14.369Z,8.17
2018-10-05T03:04:44.680Z,8.18
2018-10-05T03:07:15.053Z,8.18
2018-10-05T03:09:45.318Z,8.19
2018-10-05T03:12:16.396Z,8.15
2018-10-05T03:14:48.780Z,8.08
2018-10-05T03:17:19.332Z,8.11
2018-10-05T03:19:49.656Z,8.21
2018-10-05T03:22:19.880Z,8.19
2018-10-05T03:24:50.243Z,8.17
2018-10-05T03:27:20.859Z,8.16
2018-10-05T03:29:51.254Z,8.16
2018-10-05T03:32:21.585Z,8.16
2018-10-05T03:34:52.012Z,8.13
2018-10-05T03:37:22.445Z,8.18
2018-10-05T03:39:52.772Z,8.21
2018-10-05T03:42:23.072Z,8.13
2018-10-05T03:44:53.403Z,8.18
2018-10-05T03:47:23.816Z,8.22
2018-10-05T03:49:54.314Z,8.18
2018-10-05T03:52:24.668Z,8.22
2018-10-05T03:54:55.025Z,8.19
2018-10-05T03:57:25.415Z,8.16
2018-10-05T03:59:55.699Z,8.18
2018-10-05T04:02:26.753Z,8.20
2018-10-05T04:04:57.090Z,8.19
2018-10-05T04:07:27.345Z,8.13
2018-10-05T04:09:57.707Z,8.10
2018-10-05T04:12:28.367Z,8.10
2018-10-05T04:14:58.880Z,8.06
2018-10-05T04:17:29.277Z,8.06
2018-10-05T04:19:59.659Z,8.09
2018-10-05T04:22:31.136Z,8.05
2018-10-05T04:25:01.669Z,8.02
2018-10-05T04:27:32.249Z,7.98
2018-10-05T04:30:02.758Z,7.96
2018-10-05T04:32:33.073Z,8.01
2018-10-05T04:35:03.480Z,8.03
2018-10-05T04:37:33.944Z,8.03
2018-10-05T04:40:04.349Z,8.10
2018-10-05T04:42:34.704Z,8.14
2018-10-05T04:45:05.320Z,8.11
2018-10-05T04:47:35.742Z,8.13
2018-10-05T04:50:06.111Z,8.12
2018-10-05T04:52:36.493Z,8.17
2018-10-05T04:55:06.991Z,8.16
2018-10-05T04:57:37.543Z,8.19
2018-10-05T05:00:08.232Z,8.11
2018-10-05T05:02:38.634Z,8.06
2018-10-05T05:05:09.011Z,7.96
2018-10-05T05:07:39.444Z,7.95
2018-10-05T05:10:10.656Z,8.02
2018-10-05T05:12:40.963Z,7.98
2018-10-05T05:15:11.539Z,8.03
2018-10-05T05:17:42.038Z,7.97
2018-10-05T05:20:12.996Z,7.98
2018-10-05T05:22:43.370Z,7.94
2018-10-05T05:25:13.771Z,7.88
2018-10-05T05:27:44.356Z,7.87
2018-10-05T05:30:14.752Z,7.84
2018-10-05T05:32:45.083Z,7.83
2018-10-05T05:35:15.280Z,7.82
2018-10-05T05:37:45.580Z,7.80
2018-10-05T05:40:16.081Z,7.77
2018-10-05T05:42:46.536Z,7.82
2018-10-05T05:45:16.891Z,7.86
2018-10-05T05:47:47.412Z,8.58
2018-10-05T05:50:17.946Z,9.27
2018-10-05T05:52:48.283Z,9.91
2018-10-05T05:55:18.721Z,10.18
2018-10-05T05:57:49.012Z,10.59
2018-10-05T06:00:19.471Z,10.90
2018-10-05T06:02:49.879Z,11.31
2018-10-05T06:05:20.844Z,11.85
2018-10-05T06:07:51.251Z,12.04
2018-10-05T06:10:21.816Z,12.38
2018-10-05T06:12:52.151Z,12.82
2018-10-05T06:15:22.573Z,13.03
2018-10-05T06:17:53.033Z,13.53
2018-10-05T06:20:23.439Z,13.76
2018-10-05T06:22:53.744Z,14.05
2018-10-05T06:25:24.096Z,14.09
2018-10-05T06:27:54.374Z,13.94
2018-10-05T06:30:25.798Z,15.01
2018-10-05T06:32:56.103Z,15.03
2018-10-05T06:35:26.508Z,14.76
2018-10-05T06:37:57.067Z,15.07
2018-10-05T06:40:27.512Z,15.47
2018-10-05T06:42:57.876Z,15.50
2018-10-05T06:45:28.372Z,15.36
2018-10-05T06:47:58.829Z,15.98
2018-10-05T06:50:29.247Z,15.75
2018-10-05T06:52:59.536Z,16.45
2018-10-05T06:55:29.991Z,16.75
2018-10-05T06:58:00.294Z,17.05
2018-10-05T07:00:30.848Z,17.45
2018-10-05T07:03:01.345Z,16.98
2018-10-05T07:05:31.910Z,16.92
2018-10-05T07:08:02.471Z,17.44
2018-10-05T07:10:33.247Z,17.36
2018-10-05T07:13:03.807Z,17.07
2018-10-05T07:15:34.032Z,17.20
2018-10-05T07:18:04.312Z,17.11
2018-10-05T07:20:34.820Z,17.41
2018-10-05T07:23:05.427Z,17.25
2018-10-05T07:25:35.799Z,17.14
2018-10-05T07:28:06.300Z,17.87
2018-10-05T07:30:36.717Z,17.72
2018-10-05T07:33:07.208Z,18.19
2018-10-05T07:35:37.611Z,19.02
2018-10-05T07:38:08.208Z,19.54
2018-10-05T07:40:38.439Z,19.05
2018-10-05T07:43:08.981Z,18.96
2018-10-05T07:45:39.886Z,19.50
2018-10-05T07:48:10.418Z,20.06
2018-10-05T07:50:41.004Z,20.24
2018-10-05T07:53:11.296Z,20.30
2018-10-05T07:55:41.648Z,20.91
2018-10-05T07:58:12.046Z,20.96
2018-10-05T08:00:42.571Z,21.21
2018-10-05T08:03:12.924Z,21.65
2018-10-05T08:05:43.214Z,22.13
2018-10-05T08:08:13.655Z,21.90
2018-10-05T08:10:44.056Z,22.10
2018-10-05T08:13:14.536Z,22.15
2018-10-05T08:15:45.014Z,22.31
2018-10-05T08:18:15.284Z,22.05
2018-10-05T08:20:45.747Z,22.14
2018-10-05T08:23:16.064Z,21.73
2018-10-05T08:25:46.560Z,22.07
2018-10-05T08:28:17.109Z,21.85
2018-10-05T08:30:47.441Z,21.98
2018-10-05T08:33:17.842Z,22.06
2018-10-05T08:35:48.396Z,22.16
2018-10-05T08:38:18.735Z,21.41
2018-10-05T08:40:49.359Z,21.80
2018-10-05T08:43:19.797Z,22.09
2018-10-05T08:45:50.260Z,22.14
2018-10-05T08:48:20.767Z,21.32
2018-10-05T08:50:51.217Z,20.72
2018-10-05T08:53:21.643Z,21.09
2018-10-05T08:55:52.099Z,21.14
2018-10-05T08:58:22.502Z,21.02
2018-10-05T09:00:52.908Z,20.52
2018-10-05T09:03:23.329Z,21.04
2018-10-05T09:05:53.789Z,20.96
2018-10-05T09:08:24.114Z,20.64
2018-10-05T09:10:54.367Z,20.09
2018-10-05T09:13:24.967Z,19.89
2018-10-05T09:15:55.421Z,19.19
2018-10-05T09:18:25.846Z,19.64
2018-10-05T09:20:56.257Z,19.88
2018-10-05T09:23:26.609Z,19.74
2018-10-05T09:25:57.148Z,19.10
2018-10-05T09:28:27.340Z,19.31
2018-10-05T09:30:57.840Z,19.84
2018-10-05T09:33:28.207Z,19.15
2018-10-05T09:35:58.695Z,18.32
2018-10-05T09:38:29.297Z,19.03
2018-10-05T09:40:59.757Z,19.13
2018-10-05T09:43:30.037Z,19.08
2018-10-05T09:46:00.591Z,19.48
2018-10-05T09:48:31.103Z,19.80
2018-10-05T09:51:01.583Z,19.89
2018-10-05T09:53:31.926Z,19.87
2018-10-05T09:56:02.420Z,19.75
2018-10-05T09:58:32.920Z,20.04
2018-10-05T10:01:09.520Z,20.23
2018-10-05T10:03:39.804Z,20.36
2018-10-05T10:06:10.307Z,19.42
2018-10-05T10:08:40.762Z,20.09
2018-10-05T10:11:11.342Z,19.72
2018-10-05T10:13:41.783Z,20.25
2018-10-05T10:16:12.469Z,20.57
2018-10-05T10:18:43.181Z,20.91
2018-10-05T10:21:13.712Z,20.75
2018-10-05T10:23:44.299Z,20.41
2018-10-05T10:26:14.664Z,20.64
2018-10-05T10:28:45.325Z,20.69
2018-10-05T10:31:15.667Z,20.59
2018-10-05T10:33:46.135Z,20.92
2018-10-05T10:36:16.595Z,20.95
2018-10-05T10:38:47.167Z,20.91
2018-10-05T10:41:17.434Z,20.73
2018-10-05T10:43:47.904Z,20.83
2018-10-05T10:46:18.512Z,20.91
2018-10-05T10:48:49.007Z,20.49
2018-10-05T10:51:19.509Z,20.77
2018-10-05T10:53:49.997Z,21.07
2018-10-05T10:56:20.487Z,20.83
2018-10-05T10:58:50.820Z,20.84
2018-10-05T11:01:22.332Z,20.94
2018-10-05T11:03:52.695Z,21.15
2018-10-05T11:06:23.070Z,21.32
2018-10-05T11:08:53.371Z,21.23
2018-10-05T11:11:23.958Z,21.20
2018-10-05T11:13:54.385Z,21.36
2018-10-05T11:16:24.930Z,21.58
2018-10-05T11:18:55.976Z,21.46
2018-10-05T11:21:26.260Z,21.40
2018-10-05T11:23:56.585Z,21.54
2018-10-05T11:26:27.055Z,21.50
2018-10-05T11:28:57.540Z,21.38
2018-10-05T11:31:28.015Z,21.09
2018-10-05T11:33:58.363Z,21.17
2018-10-05T11:36:28.861Z,21.23
2018-10-05T11:38:59.254Z,21.40
2018-10-05T11:41:29.637Z,21.70
2018-10-05T11:44:00.691Z,21.85
2018-10-05T11:46:31.426Z,21.15
2018-10-05T11:49:01.811Z,21.15
2018-10-05T11:51:32.164Z,21.05
2018-10-05T11:54:02.587Z,21.18
2018-10-05T11:56:32.988Z,21.23
2018-10-05T11:59:03.331Z,21.15
2018-10-05T12:01:33.691Z,21.11
2018-10-05T12:04:04.183Z,21.24
2018-10-05T12:06:35.124Z,21.13
2018-10-05T12:09:07.459Z,20.91
2018-10-05T12:11:38.337Z,20.99
2018-10-05T12:14:08.763Z,20.70
2018-10-05T12:16:39.335Z,20.94
2018-10-05T12:19:09.835Z,20.89
2018-10-05T12:21:40.207Z,21.16
2018-10-05T12:24:10.577Z,21.21
2018-10-05T12:26:41.127Z,21.14
2018-10-05T12:29:12.173Z,21.18
2018-10-05T12:31:42.526Z,21.25
2018-10-05T12:34:13.030Z,21.29
2018-10-05T12:36:43.420Z,21.23
2018-10-05T12:39:13.820Z,21.24
2018-10-05T12:41:44.140Z,21.13
2018-10-05T12:44:14.440Z,21.20
2018-10-05T12:46:45.037Z,21.17
2018-10-05T12:49:15.531Z,21.32
2018-10-05T12:51:46.115Z,21.25
2018-10-05T12:54:16.483Z,21.18
2018-10-05T12:56:46.807Z,21.13
2018-10-05T12:59:17.235Z,21.02
2018-10-05T13:01:47.748Z,20.91
2018-10-05T13:04:18.223Z,21.03
2018-10-05T13:06:48.809Z,20.96
2018-10-05T13:09:19.149Z,21.02
2018-10-05T13:11:49.581Z,20.85
2018-10-05T13:14:20.135Z,20.94
2018-10-05T13:16:50.580Z,20.94
2018-10-05T13:19:21.000Z,20.77
2018-10-05T13:21:51.372Z,20.87
2018-10-05T13:24:21.665Z,20.95
2018-10-05T13:26:52.100Z,20.98
2018-10-05T13:29:22.592Z,20.98
2018-10-05T13:31:53.098Z,21.01
2018-10-05T13:34:23.598Z,20.98
2018-10-05T13:36:53.863Z,21.02
2018-10-05T13:39:24.336Z,21.00
2018-10-05T13:41:54.748Z,21.10
2018-10-05T13:44:25.202Z,21.08
2018-10-05T13:46:55.575Z,21.05
2018-10-05T13:49:26.208Z,20.99
2018-10-05T13:51:56.634Z,21.00
2018-10-05T13:54:27.028Z,21.03
2018-10-05T13:56:57.343Z,21.15
2018-10-05T13:59:27.768Z,21.22
2018-10-05T14:01:58.511Z,21.21
2018-10-05T14:04:29.025Z,21.10
2018-10-05T14:06:59.501Z,21.08
2018-10-05T14:09:30.019Z,21.05
2018-10-05T14:12:01.388Z,20.92
2018-10-05T14:14:31.663Z,20.86
2018-10-05T14:17:02.064Z,20.98
2018-10-05T14:19:32.562Z,20.94
2018-10-05T14:22:03.037Z,20.89
2018-10-05T14:24:34.128Z,20.92
2018-10-05T14:27:05.207Z,20.99
2018-10-05T14:29:35.512Z,20.92
2018-10-05T14:32:05.984Z,20.90
2018-10-05T14:34:36.764Z,20.80
2018-10-05T14:37:07.319Z,20.72
2018-10-05T14:39:37.852Z,20.57
2018-10-05T14:42:08.234Z,20.57
2018-10-05T14:44:38.782Z,20.65
2018-10-05T14:47:09.285Z,20.51
2018-10-05T14:49:39.909Z,20.57
2018-10-05T14:52:10.460Z,20.40
2018-10-05T14:54:41.174Z,20.38
2018-10-05T14:57:11.708Z,20.37
2018-10-05T14:59:42.313Z,20.40
2018-10-05T15:02:12.543Z,20.37
2018-10-05T15:04:43.008Z,20.27
2018-10-05T15:07:13.719Z,20.25
2018-10-05T15:09:44.294Z,20.22
2018-10-05T15:12:14.879Z,20.23
2018-10-05T15:14:45.312Z,20.23
2018-10-05T15:17:15.699Z,20.28
2018-10-05T15:19:46.040Z,20.08
2018-10-05T15:22:16.413Z,20.13
2018-10-05T15:24:46.732Z,19.97
2018-10-05T15:27:17.299Z,19.95
2018-10-05T15:29:47.687Z,19.94
2018-10-05T15:32:18.039Z,19.81
2018-10-05T15:34:48.334Z,19.66
2018-10-05T15:37:19.035Z,19.63
2018-10-05T15:39:49.700Z,19.63
2018-10-05T15:42:20.091Z,19.47
2018-10-05T15:44:50.447Z,19.43
2018-10-05T15:47:20.892Z,19.46
2018-10-05T15:49:51.312Z,19.31
2018-10-05T15:52:21.738Z,19.20
2018-10-05T15:54:52.210Z,19.15
2018-10-05T15:57:22.771Z,19.13
2018-10-05T15:59:53.281Z,19.01
2018-10-05T16:02:23.783Z,18.97
2018-10-05T16:04:54.211Z,18.89
2018-10-05T16:07:24.680Z,18.78
2018-10-05T16:09:54.984Z,18.66
2018-10-05T16:12:25.875Z,18.52
2018-10-05T16:14:56.352Z,18.37
2018-10-05T16:17:26.891Z,18.20
2018-10-05T16:19:57.183Z,18.06
2018-10-05T16:22:27.777Z,17.90
2018-10-05T16:24:58.373Z,17.82
2018-10-05T16:27:28.747Z,17.75
2018-10-05T16:29:59.003Z,17.64
2018-10-05T16:32:29.503Z,17.52
2018-10-05T16:35:00.010Z,17.40
2018-10-05T16:37:30.578Z,17.24
2018-10-05T16:40:00.785Z,17.15
2018-10-05T16:42:31.244Z,17.02
2018-10-05T16:45:01.704Z,16.86
2018-10-05T16:47:32.564Z,16.75
2018-10-05T16:50:02.952Z,16.58
2018-10-05T16:52:35.396Z,16.43
2018-10-05T16:55:05.888Z,16.28
2018-10-05T16:57:36.384Z,16.15
2018-10-05T17:00:07.097Z,16.04
2018-10-05T17:02:37.566Z,15.89
2018-10-05T17:05:08.160Z,15.78
2018-10-05T17:07:38.381Z,15.73
2018-10-05T17:10:09.532Z,15.63
2018-10-05T17:12:39.771Z,15.48
2018-10-05T17:15:10.180Z,15.35
2018-10-05T17:17:40.702Z,15.25
2018-10-05T17:20:11.144Z,15.20
2018-10-05T17:22:41.403Z,15.10
2018-10-05T17:25:11.882Z,15.00
2018-10-05T17:27:42.281Z,15.00
2018-10-05T17:30:12.792Z,14.92
2018-10-05T17:32:43.353Z,14.80
2018-10-05T17:35:13.857Z,14.73
2018-10-05T17:37:44.529Z,14.66
2018-10-05T17:40:14.698Z,14.52
2018-10-05T17:42:45.199Z,14.42
2018-10-05T17:45:15.701Z,14.34
2018-10-05T17:47:46.378Z,14.37
2018-10-05T17:50:16.924Z,14.34
2018-10-05T17:52:47.429Z,14.35
2018-10-05T17:55:18.736Z,14.40
2018-10-05T17:57:49.183Z,14.38
2018-10-05T18:00:19.801Z,14.35
2018-10-05T18:02:50.306Z,14.23
2018-10-05T18:05:20.612Z,14.16
2018-10-05T18:07:51.103Z,14.01
2018-10-05T18:10:21.681Z,13.95
2018-10-05T18:12:52.163Z,13.90
2018-10-05T18:15:23.332Z,13.78
2018-10-05T18:17:53.817Z,13.67
2018-10-05T18:20:24.387Z,13.67
2018-10-05T18:22:54.673Z,13.59
2018-10-05T18:25:25.185Z,13.48
2018-10-05T18:27:55.652Z,13.44
2018-10-05T18:30:26.107Z,13.28
2018-10-05T18:32:56.884Z,13.15
2018-10-05T18:35:27.502Z,13.05
2018-10-05T18:37:58.010Z,12.97
2018-10-05T18:40:28.663Z,12.92
2018-10-05T18:42:59.254Z,12.81
2018-10-05T18:45:29.745Z,12.69
2018-10-05T18:48:00.261Z,12.70
2018-10-05T18:50:30.772Z,12.70
2018-10-05T18:53:01.357Z,12.82
2018-10-05T18:55:31.941Z,12.87
2018-10-05T18:58:02.367Z,12.93
2018-10-05T19:00:33.078Z,12.83
2018-10-05T19:03:03.740Z,12.74
2018-10-05T19:05:34.701Z,12.65
2018-10-05T19:08:05.187Z,12.56
2018-10-05T19:10:35.801Z,12.51
2018-10-05T19:13:06.487Z,12.41
2018-10-05T19:15:37.144Z,12.39
2018-10-05T19:18:07.648Z,12.38
2018-10-05T19:20:38.320Z,12.34
2018-10-05T19:23:08.916Z,12.45
2018-10-05T19:25:39.197Z,12.37
2018-10-05T19:28:09.543Z,12.37
2018-10-05T19:30:40.041Z,12.34
2018-10-05T19:33:10.628Z,12.24
2018-10-05T19:35:41.323Z,12.11
2018-10-05T19:38:11.818Z,12.10
2018-10-05T19:40:42.613Z,12.16
2018-10-05T19:43:13.129Z,12.19
2018-10-05T19:45:43.900Z,12.19
2018-10-05T19:48:14.598Z,12.06
2018-10-05T19:50:45.011Z,12.00
2018-10-05T19:53:15.534Z,12.18
2018-10-05T19:55:46.083Z,12.25
2018-10-05T19:58:16.672Z,12.36
2018-10-05T20:00:47.134Z,12.31
2018-10-05T20:03:17.635Z,12.29
2018-10-05T20:05:48.213Z,12.34
2018-10-05T20:08:18.732Z,12.33
2018-10-05T20:10:49.943Z,12.26
2018-10-05T20:13:20.499Z,12.25
2018-10-05T20:15:51.083Z,12.15
2018-10-05T20:18:21.405Z,12.12
2018-10-05T20:20:51.907Z,11.96
2018-10-05T20:23:22.450Z,11.77
2018-10-05T20:25:53.111Z,11.70
2018-10-05T20:28:23.676Z,11.60
2018-10-05T20:30:54.328Z,11.69
2018-10-05T20:33:26.917Z,11.60
2018-10-05T20:35:57.755Z,11.62
2018-10-05T20:38:28.168Z,11.52
2018-10-05T20:40:58.644Z,11.49
2018-10-05T20:43:29.234Z,11.43
2018-10-05T20:45:59.913Z,11.40
2018-10-05T20:48:30.403Z,11.50
2018-10-05T20:51:00.799Z,11.60
2018-10-05T20:53:31.768Z,11.66
2018-10-05T20:56:02.191Z,11.55
2018-10-05T20:58:32.538Z,11.48
2018-10-05T21:01:02.918Z,11.27
2018-10-05T21:03:33.403Z,11.22
2018-10-05T21:06:03.883Z,11.17
2018-10-05T21:08:34.268Z,10.99
2018-10-05T21:11:04.666Z,11.17
2018-10-05T21:13:35.110Z,11.18
2018-10-05T21:16:05.575Z,11.28
2018-10-05T21:18:36.089Z,11.24
2018-10-05T21:21:06.989Z,11.25
2018-10-05T21:23:37.464Z,11.22
2018-10-05T21:26:08.070Z,11.19
2018-10-05T21:28:38.530Z,11.11
2018-10-05T21:31:09.218Z,11.06
2018-10-05T21:33:39.692Z,11.08
2018-10-05T21:36:09.979Z,11.12
2018-10-05T21:38:41.591Z,11.14
2018-10-05T21:41:12.046Z,11.10
2018-10-05T21:43:42.525Z,11.12
2018-10-05T21:46:13.012Z,11.21
2018-10-05T21:48:43.572Z,11.21
2018-10-05T21:51:13.906Z,11.13
2018-10-05T21:53:44.267Z,11.03
2018-10-05T21:56:14.925Z,10.92
2018-10-05T21:58:45.331Z,10.85
2018-10-05T22:01:15.701Z,10.84
2018-10-05T22:03:46.948Z,10.86
2018-10-05T22:06:19.198Z,11.06
2018-10-05T22:08:49.707Z,11.02
2018-10-05T22:11:20.063Z,11.04
2018-10-05T22:13:50.363Z,11.06
2018-10-05T22:16:20.941Z,11.13
2018-10-05T22:18:51.447Z,11.10
2018-10-05T22:21:21.995Z,11.12
2018-10-05T22:23:52.314Z,11.06
2018-10-05T22:26:22.555Z,10.81
2018-10-05T22:28:52.953Z,10.57
2018-10-05T22:31:23.312Z,10.58
2018-10-05T22:33:53.693Z,10.54
2018-10-05T22:36:24.263Z,10.54
2018-10-05T22:38:54.769Z,10.44
2018-10-05T22:41:25.276Z,10.38
2018-10-05T22:43:55.517Z,10.23
2018-10-05T22:46:25.980Z,10.17
2018-10-05T22:48:56.369Z,10.07
2018-10-05T22:51:27.036Z,9.96
2018-10-05T22:53:57.359Z,9.93
2018-10-05T22:56:27.856Z,9.88
2018-10-05T22:58:58.204Z,9.83
2018-10-05T23:01:28.669Z,9.84
2018-10-05T23:03:59.061Z,9.85
2018-10-05T23:06:29.565Z,9.87
2018-10-05T23:08:59.900Z,9.86
2018-10-05T23:11:30.305Z,9.83
2018-10-05T23:14:00.681Z,9.78
2018-10-05T23:16:31.283Z,9.73
2018-10-05T23:19:01.761Z,9.64
2018-10-05T23:21:32.380Z,9.56
2018-10-05T23:24:02.872Z,9.48
2018-10-05T23:26:33.412Z,9.47
2018-10-05T23:29:03.772Z,9.42
2018-10-05T23:31:34.236Z,9.31
2018-10-05T23:34:04.753Z,9.26
2018-10-05T23:36:35.408Z,9.28
2018-10-05T23:39:08.216Z,9.34
2018-10-05T23:41:38.644Z,9.39
2018-10-05T23:44:09.532Z,9.45
2018-10-05T23:46:39.893Z,9.43
2018-10-05T23:49:10.382Z,9.46
2018-10-05T23:51:40.890Z,9.43
2018-10-05T23:54:11.159Z,9.37
2018-10-05T23:56:41.632Z,9.35
2018-10-05T23:59:11.909Z,9.39
